createdAt,value
2019-05-26T00:02:04.538Z,22.9
2019-05-26T00:05:10.815Z,22.8
2019-05-26T00:08:17.042Z,22.8
2019-05-26T00:11:23.309Z,22.8
2019-05-26T00:14:29.552Z,22.8
2019-05-26T00:17:35.735Z,22.8
2019-05-26T00:20:41.939Z,22.8
2019-05-26T00:23:48.209Z,22.7
2019-05-26T00:26:54.481Z,22.7
2019-05-26T00:30:00.635Z,22.7
2019-05-26T00:33:06.816Z,22.7
2019-05-26T00:36:12.956Z,22.7
2019-05-26T00:39:19.218Z,22.6
2019-05-26T00:42:25.391Z,22.6
2019-05-26T00:45:31.576Z,22.6
2019-05-26T00:48:40.687Z,22.6
2019-05-26T00:51:46.940Z,22.6
2019-05-26T00:54:53.237Z,22.6
2019-05-26T00:57:59.507Z,22.6
2019-05-26T01:01:05.754Z,22.5
2019-05-26T01:04:11.923Z,22.5
2019-05-26T01:07:18.194Z,22.5
2019-05-26T01:10:24.426Z,22.5
2019-05-26T01:13:30.750Z,22.5
2019-05-26T01:16:37.035Z,22.5
2019-05-26T01:19:43.271Z,22.5
2019-05-26T01:22:49.441Z,22.4
2019-05-26T01:25:58.900Z,22.5
2019-05-26T01:29:05.243Z,22.4
2019-05-26T01:32:11.520Z,22.4
2019-05-26T01:35:17.854Z,22.4
2019-05-26T01:38:26.787Z,22.4
2019-05-26T01:41:32.969Z,22.4
2019-05-26T01:44:39.206Z,22.4
2019-05-26T01:47:45.475Z,22.3
2019-05-26T01:50:51.690Z,22.4
2019-05-26T01:53:57.870Z,22.3
2019-05-26T01:57:03.979Z,22.3
2019-05-26T02:00:10.184Z,22.2
2019-05-26T02:03:16.349Z,22.2
2019-05-26T02:06:22.547Z,22.2
2019-05-26T02:09:28.831Z,22.2
2019-05-26T02:12:35.060Z,22.2
2019-05-26T02:15:41.265Z,22.2
2019-05-26T02:18:47.517Z,22.1
2019-05-26T02:21:53.677Z,22.2
2019-05-26T02:24:59.864Z,22.1
2019-05-26T02:28:08.584Z,22.1
2019-05-26T02:31:14.863Z,22
2019-05-26T02:34:21.029Z,22.1
2019-05-26T02:37:27.325Z,22
2019-05-26T02:40:33.457Z,22
2019-05-26T02:43:39.804Z,22
2019-05-26T02:46:46.089Z,22
2019-05-26T02:49:55.201Z,22
2019-05-26T02:53:01.424Z,22
2019-05-26T02:56:07.628Z,22
2019-05-26T02:59:13.719Z,22
2019-05-26T03:02:20.021Z,21.9
2019-05-26T03:05:26.313Z,21.9
2019-05-26T03:08:32.727Z,21.9
2019-05-26T03:11:39.058Z,21.9
2019-05-26T03:14:45.254Z,21.9
2019-05-26T03:17:51.468Z,22
2019-05-26T03:20:57.616Z,22
2019-05-26T03:24:03.811Z,22
2019-05-26T03:27:10.203Z,22
2019-05-26T03:30:16.532Z,22
2019-05-26T03:33:22.784Z,22.1
2019-05-26T03:36:28.967Z,22.1
2019-05-26T03:39:44.120Z,22.1
2019-05-26T03:42:52.380Z,22.1
2019-05-26T03:45:58.617Z,22.2
2019-05-26T03:49:04.842Z,22.3
2019-05-26T03:52:11.029Z,22.4
2019-05-26T03:55:17.239Z,22.5
2019-05-26T03:58:23.493Z,22.6
2019-05-26T04:01:29.858Z,22.6
2019-05-26T04:04:36.166Z,22.8
2019-05-26T04:07:42.385Z,22.8
2019-05-26T04:10:48.716Z,22.9
2019-05-26T04:13:54.976Z,22.9
2019-05-26T04:17:01.234Z,23
2019-05-26T04:20:07.419Z,23
2019-05-26T04:23:13.763Z,23.1
2019-05-26T04:26:19.990Z,23.1
2019-05-26T04:29:26.273Z,23.3
2019-05-26T04:32:32.594Z,23.3
2019-05-26T04:35:38.853Z,23.3
2019-05-26T04:38:45.078Z,23.2
2019-05-26T04:41:51.302Z,23.2
2019-05-26T04:44:57.503Z,23.2
2019-05-26T04:48:03.724Z,23.3
2019-05-26T04:51:09.916Z,23.4
2019-05-26T04:54:16.166Z,23.4
2019-05-26T04:57:22.406Z,23.4
2019-05-26T05:00:28.581Z,23.3
2019-05-26T05:03:34.751Z,23.4
2019-05-26T05:06:41.203Z,23.4
2019-05-26T05:09:47.452Z,23.4
2019-05-26T05:12:56.470Z,23.4
2019-05-26T05:16:02.964Z,23.4
2019-05-26T05:19:09.164Z,23.5
2019-05-26T05:22:15.282Z,23.5
2019-05-26T05:25:21.630Z,23.6
2019-05-26T05:28:27.820Z,23.6
2019-05-26T05:31:34.025Z,23.7
2019-05-26T05:34:40.243Z,23.7
2019-05-26T05:37:46.550Z,23.7
2019-05-26T05:40:59.316Z,23.7
2019-05-26T05:44:06.226Z,23.7
2019-05-26T05:47:12.468Z,23.8
2019-05-26T05:50:18.707Z,23.8
2019-05-26T05:53:25.001Z,23.8
2019-05-26T05:56:31.179Z,23.9
2019-05-26T05:59:37.367Z,23.9
2019-05-26T06:02:43.622Z,23.8
2019-05-26T06:05:49.834Z,23.9
2019-05-26T06:08:56.007Z,23.9
2019-05-26T06:12:02.202Z,23.9
2019-05-26T06:15:08.470Z,24
2019-05-26T06:18:15.976Z,24
2019-05-26T06:21:22.147Z,24
2019-05-26T06:24:28.286Z,24.1
2019-05-26T06:27:34.566Z,24.1
2019-05-26T06:30:40.717Z,24.1
2019-05-26T06:33:46.968Z,24.1
2019-05-26T06:36:53.213Z,24.2
2019-05-26T06:39:59.416Z,24.2
2019-05-26T06:43:05.579Z,24.3
2019-05-26T06:46:11.750Z,24.3
2019-05-26T06:49:17.997Z,24.3
2019-05-26T06:52:24.279Z,24.4
2019-05-26T06:55:30.454Z,24.4
2019-05-26T06:58:36.634Z,24.4
2019-05-26T07:01:42.901Z,24.5
2019-05-26T07:04:49.078Z,24.5
2019-05-26T07:07:55.274Z,24.6
2019-05-26T07:11:01.584Z,24.6
2019-05-26T07:14:07.731Z,24.6
2019-05-26T07:17:14.059Z,24.7
2019-05-26T07:20:24.448Z,24.7
2019-05-26T07:23:30.646Z,24.7
2019-05-26T07:26:36.948Z,24.8
2019-05-26T07:29:43.204Z,24.8
2019-05-26T07:32:49.343Z,24.9
2019-05-26T07:35:55.680Z,24.9
2019-05-26T07:39:01.856Z,24.9
2019-05-26T07:42:10.309Z,25
2019-05-26T07:45:17.136Z,25
2019-05-26T07:48:23.531Z,25
2019-05-26T07:51:29.695Z,25.1
2019-05-26T07:54:35.934Z,25.1
2019-05-26T07:57:42.184Z,25.2
2019-05-26T08:00:48.439Z,25.2
2019-05-26T08:03:54.802Z,25.2
2019-05-26T08:07:00.987Z,25.3
2019-05-26T08:10:07.310Z,25.3
2019-05-26T08:13:13.572Z,25.3
2019-05-26T08:16:19.805Z,25.3
2019-05-26T08:19:25.990Z,25.3
2019-05-26T08:22:32.216Z,25.3
2019-05-26T08:25:38.439Z,25.4
2019-05-26T08:28:44.711Z,25.4
2019-05-26T08:31:51.008Z,25.4
2019-05-26T08:34:57.139Z,25.3
2019-05-26T08:38:06.068Z,25.3
2019-05-26T08:41:12.260Z,25.4
2019-05-26T08:44:18.439Z,25.3
2019-05-26T08:47:24.666Z,25.3
2019-05-26T08:50:34.014Z,25.4
2019-05-26T08:53:43.003Z,25.4
2019-05-26T08:56:49.182Z,25.4
2019-05-26T08:59:55.443Z,25.4
2019-05-26T09:03:01.620Z,25.5
2019-05-26T09:06:08.078Z,25.5
2019-05-26T09:09:14.330Z,25.5
2019-05-26T09:12:20.507Z,25.5
2019-05-26T09:15:26.758Z,25.5
2019-05-26T09:18:33.073Z,25.5
2019-05-26T09:21:39.259Z,25.5
2019-05-26T09:24:45.374Z,25.5
2019-05-26T09:27:51.543Z,25.5
2019-05-26T09:30:57.741Z,25.5
2019-05-26T09:34:03.866Z,25.5
2019-05-26T09:37:10.115Z,25.5
2019-05-26T09:40:16.315Z,25.5
2019-05-26T09:43:22.541Z,25.5
2019-05-26T09:46:28.789Z,25.5
2019-05-26T09:49:34.894Z,25.5
2019-05-26T09:52:41.103Z,25.5
2019-05-26T09:55:47.236Z,25.5
2019-05-26T09:58:53.446Z,25.6
2019-05-26T10:01:59.902Z,25.5
2019-05-26T10:05:06.138Z,25.5
2019-05-26T10:08:12.328Z,25.5
2019-05-26T10:11:18.517Z,25.5
2019-05-26T10:14:24.812Z,25.5
2019-05-26T10:17:31.045Z,25.5
2019-05-26T10:20:37.279Z,25.5
2019-05-26T10:23:43.493Z,25.5
2019-05-26T10:26:49.721Z,25.5
2019-05-26T10:29:56.011Z,25.5
2019-05-26T10:33:02.110Z,25.5
2019-05-26T10:36:08.364Z,25.5
2019-05-26T10:39:14.695Z,25.5
2019-05-26T10:42:20.809Z,25.5
2019-05-26T10:45:27.032Z,25.5
2019-05-26T10:48:37.393Z,25.4
2019-05-26T10:51:43.643Z,25.4
2019-05-26T10:54:49.846Z,25.4
2019-05-26T10:57:56.060Z,25.4
2019-05-26T11:01:02.407Z,25.3
2019-05-26T11:04:08.730Z,25.4
2019-05-26T11:07:15.031Z,25.4
2019-05-26T11:10:21.203Z,25.4
2019-05-26T11:13:27.453Z,25.3
2019-05-26T11:16:33.685Z,25.4
2019-05-26T11:19:39.856Z,25.4
2019-05-26T11:22:46.016Z,25.4
2019-05-26T11:25:52.126Z,25.4
2019-05-26T11:28:58.294Z,25.4
2019-05-26T11:32:04.514Z,25.3
2019-05-26T11:35:10.706Z,25.4
2019-05-26T11:38:16.917Z,25.3
2019-05-26T11:41:23.164Z,25.3
2019-05-26T11:44:29.353Z,25.4
2019-05-26T11:47:35.509Z,25.3
2019-05-26T11:50:41.642Z,25.3
2019-05-26T11:53:47.849Z,25.3
2019-05-26T11:56:54.041Z,25.3
2019-05-26T12:00:00.299Z,25.3
2019-05-26T12:03:07.535Z,25.3
2019-05-26T12:06:13.743Z,25.3
2019-05-26T12:09:20.006Z,25.3
2019-05-26T12:12:26.128Z,25.2
2019-05-26T12:15:32.411Z,25.2
2019-05-26T12:18:38.606Z,25.2
2019-05-26T12:21:44.823Z,25.3
2019-05-26T12:24:51.050Z,25.2
2019-05-26T12:27:57.192Z,25.3
2019-05-26T12:31:03.365Z,25.3
2019-05-26T12:34:09.546Z,25.2
2019-05-26T12:37:15.786Z,25.2
2019-05-26T12:40:21.910Z,25.3
2019-05-26T12:43:28.085Z,25.3
2019-05-26T12:46:34.343Z,25.3
2019-05-26T12:49:40.530Z,25.3
2019-05-26T12:52:46.705Z,25.3
2019-05-26T12:55:52.831Z,25.3
2019-05-26T12:58:59.018Z,25.3
2019-05-26T13:02:05.284Z,25.3
2019-05-26T13:05:11.495Z,25.3
2019-05-26T13:08:18.037Z,25.3
2019-05-26T13:11:24.235Z,25.3
2019-05-26T13:14:30.469Z,25.3
2019-05-26T13:17:36.665Z,25.3
2019-05-26T13:20:42.858Z,25.3
2019-05-26T13:23:49.095Z,25.3
2019-05-26T13:26:55.387Z,25.3
2019-05-26T13:30:01.626Z,25.3
2019-05-26T13:33:07.826Z,25.3
2019-05-26T13:36:14.040Z,25.4
2019-05-26T13:39:20.199Z,25.3
2019-05-26T13:42:26.410Z,25.3
2019-05-26T13:45:33.969Z,25.3
2019-05-26T13:48:40.317Z,25.3
2019-05-26T13:51:49.642Z,25.3
2019-05-26T13:54:56.647Z,25.4
2019-05-26T13:58:02.842Z,25.3
2019-05-26T14:01:09.038Z,25.4
2019-05-26T14:04:15.290Z,25.4
2019-05-26T14:07:21.571Z,25.4
2019-05-26T14:10:27.733Z,25.4
2019-05-26T14:13:33.995Z,25.4
2019-05-26T14:16:40.186Z,25.4
2019-05-26T14:19:46.337Z,25.4
2019-05-26T14:22:52.528Z,25.4
2019-05-26T14:25:58.720Z,25.4
2019-05-26T14:29:04.887Z,25.4
2019-05-26T14:32:11.074Z,25.4
2019-05-26T14:35:17.263Z,25.4
2019-05-26T14:38:40.516Z,25.4
2019-05-26T14:41:49.343Z,25.4
2019-05-26T14:44:58.415Z,25.4
2019-05-26T14:48:08.863Z,25.4
2019-05-26T14:51:15.096Z,25.4
2019-05-26T14:54:21.319Z,25.4
2019-05-26T14:57:30.720Z,25.4
2019-05-26T15:00:37.281Z,25.4
2019-05-26T15:03:43.505Z,25.4
2019-05-26T15:06:49.706Z,25.4
2019-05-26T15:09:55.886Z,25.4
2019-05-26T15:13:02.042Z,25.4
2019-05-26T15:16:10.184Z,25.4
2019-05-26T15:19:16.672Z,25.4
2019-05-26T15:22:22.905Z,25.4
2019-05-26T15:25:29.084Z,25.4
2019-05-26T15:28:35.303Z,25.4
2019-05-26T15:31:41.601Z,25.4
2019-05-26T15:34:47.740Z,25.4
2019-05-26T15:37:53.991Z,25.4
2019-05-26T15:41:00.247Z,25.4
2019-05-26T15:44:06.348Z,25.3
2019-05-26T15:47:15.515Z,25.3
2019-05-26T15:50:21.654Z,25.3
2019-05-26T15:53:27.829Z,25.2
2019-05-26T15:56:34.015Z,25.2
2019-05-26T15:59:40.204Z,25.1
2019-05-26T16:02:46.337Z,25.1
2019-05-26T16:05:52.667Z,25.1
2019-05-26T16:08:59.043Z,25.1
2019-05-26T16:12:05.291Z,25.1
2019-05-26T16:15:11.480Z,25.1
2019-05-26T16:18:17.658Z,25.1
2019-05-26T16:21:27.850Z,25.1
2019-05-26T16:24:34.469Z,25.1
2019-05-26T16:27:40.697Z,25
2019-05-26T16:30:46.806Z,25
2019-05-26T16:33:53.044Z,25
2019-05-26T16:36:59.237Z,25.1
2019-05-26T16:40:05.393Z,25
2019-05-26T16:43:11.649Z,25
2019-05-26T16:46:17.850Z,25
2019-05-26T16:49:24.035Z,25
2019-05-26T16:52:30.159Z,25
2019-05-26T16:55:36.314Z,25
2019-05-26T16:58:42.557Z,25
2019-05-26T17:01:48.882Z,25
2019-05-26T17:04:55.385Z,25
2019-05-26T17:08:01.535Z,25
2019-05-26T17:11:07.717Z,25
2019-05-26T17:14:13.845Z,25
2019-05-26T17:17:20.031Z,25
2019-05-26T17:20:26.141Z,25
2019-05-26T17:23:32.301Z,25
2019-05-26T17:26:38.483Z,25
2019-05-26T17:29:44.663Z,25
2019-05-26T17:32:50.895Z,25
2019-05-26T17:35:57.128Z,25
2019-05-26T17:39:03.276Z,25
2019-05-26T17:42:09.459Z,25
2019-05-26T17:45:15.709Z,25
2019-05-26T17:48:21.883Z,25
2019-05-26T17:51:28.039Z,25
2019-05-26T17:54:34.211Z,25
2019-05-26T17:57:40.305Z,25
2019-05-26T18:00:46.498Z,25
2019-05-26T18:03:52.695Z,25
2019-05-26T18:06:58.823Z,25
2019-05-26T18:10:04.972Z,25
2019-05-26T18:13:11.185Z,25
2019-05-26T18:16:17.392Z,25
2019-05-26T18:19:23.871Z,25
2019-05-26T18:22:34.346Z,25
2019-05-26T18:25:40.496Z,25
2019-05-26T18:28:46.725Z,25
2019-05-26T18:31:52.932Z,24.9
2019-05-26T18:34:59.794Z,25
2019-05-26T18:38:06.103Z,25
2019-05-26T18:41:12.411Z,25
2019-05-26T18:44:18.639Z,25
2019-05-26T18:47:24.800Z,25
2019-05-26T18:50:30.987Z,25
2019-05-26T18:53:37.166Z,25
2019-05-26T18:56:43.271Z,25
2019-05-26T18:59:49.446Z,25
2019-05-26T19:02:55.722Z,24.9
2019-05-26T19:06:02.052Z,24.9
2019-05-26T19:09:08.240Z,24.9
2019-05-26T19:12:14.442Z,24.9
2019-05-26T19:15:20.666Z,25
2019-05-26T19:18:26.830Z,24.9
2019-05-26T19:21:33.004Z,25
2019-05-26T19:24:39.162Z,24.9
2019-05-26T19:27:45.344Z,24.9
2019-05-26T19:30:51.481Z,25
2019-05-26T19:33:57.714Z,25
2019-05-26T19:37:04.020Z,25
2019-05-26T19:40:10.238Z,25
2019-05-26T19:43:16.357Z,24.9
2019-05-26T19:46:22.575Z,25
2019-05-26T19:49:28.794Z,25
2019-05-26T19:52:34.950Z,25
2019-05-26T19:55:41.161Z,25
2019-05-26T19:58:47.423Z,25
2019-05-26T20:01:53.621Z,25
2019-05-26T20:05:24.198Z,25
2019-05-26T20:08:30.495Z,25
2019-05-26T20:11:36.691Z,25
2019-05-26T20:14:42.968Z,25
2019-05-26T20:17:51.607Z,25
2019-05-26T20:20:57.767Z,25
2019-05-26T20:24:04.025Z,25
2019-05-26T20:27:10.205Z,25
2019-05-26T20:30:16.511Z,25
2019-05-26T20:33:30.836Z,25
2019-05-26T20:36:37.047Z,25
2019-05-26T20:39:46.136Z,25
2019-05-26T20:42:52.494Z,24.9
2019-05-26T20:45:58.878Z,24.9
2019-05-26T20:49:05.100Z,24.9
2019-05-26T20:52:11.386Z,24.9
2019-05-26T20:55:17.661Z,24.9
2019-05-26T20:58:24.286Z,24.9
2019-05-26T21:01:30.450Z,24.9
2019-05-26T21:04:37.058Z,24.9
2019-05-26T21:07:43.489Z,24.9
2019-05-26T21:10:49.698Z,24.9
2019-05-26T21:13:55.870Z,24.9
2019-05-26T21:17:02.068Z,24.9
2019-05-26T21:20:08.201Z,24.9
2019-05-26T21:23:14.475Z,24.9
2019-05-26T21:26:20.670Z,24.9
2019-05-26T21:29:29.865Z,24.9
2019-05-26T21:32:36.118Z,24.9
2019-05-26T21:35:42.373Z,24.9
2019-05-26T21:38:48.552Z,24.9
2019-05-26T21:41:54.765Z,24.8
2019-05-26T21:45:03.419Z,24.8
2019-05-26T21:48:09.585Z,24.8
2019-05-26T21:51:15.871Z,24.8
2019-05-26T21:54:22.191Z,24.8
2019-05-26T21:57:28.504Z,24.8
2019-05-26T22:00:34.694Z,24.7
2019-05-26T22:03:40.963Z,24.7
2019-05-26T22:06:47.345Z,24.7
2019-05-26T22:09:53.484Z,24.7
2019-05-26T22:12:59.671Z,24.7
2019-05-26T22:16:05.837Z,24.7
2019-05-26T22:19:12.050Z,24.6
2019-05-26T22:22:18.229Z,24.6
2019-05-26T22:25:24.520Z,24.6
2019-05-26T22:28:30.677Z,24.6
2019-05-26T22:31:36.866Z,24.5
2019-05-26T22:34:42.997Z,24.5
2019-05-26T22:37:49.295Z,24.5
2019-05-26T22:40:55.434Z,24.5
2019-05-26T22:44:01.594Z,24.5
2019-05-26T22:47:07.772Z,24.5
2019-05-26T22:50:13.967Z,24.5
2019-05-26T22:53:20.166Z,24.4
2019-05-26T22:56:26.415Z,24.4
2019-05-26T22:59:32.550Z,24.4
2019-05-26T23:02:38.788Z,24.4
2019-05-26T23:05:45.597Z,24.4
2019-05-26T23:08:51.839Z,24.4
2019-05-26T23:11:58.031Z,24.4
2019-05-26T23:15:04.206Z,24.3
2019-05-26T23:18:10.315Z,24.3
2019-05-26T23:21:16.533Z,24.3
2019-05-26T23:24:22.799Z,24.3
2019-05-26T23:27:29.047Z,24.3
2019-05-26T23:30:35.250Z,24.3
2019-05-26T23:33:41.527Z,24.3
2019-05-26T23:36:47.782Z,24.3
2019-05-26T23:39:53.987Z,24.2
2019-05-26T23:43:00.181Z,24.2
2019-05-26T23:46:06.437Z,24.2
2019-05-26T23:49:12.683Z,24.2
2019-05-26T23:52:19.542Z,24.2
2019-05-26T23:55:25.948Z,24.2
2019-05-26T23:58:32.164Z,24.2
